Grant, Iowa
Current Conditions -  °F | °C
As of 4:35 AM on Thursday 27 Nov 2014 (Local Time) from KRDK Reporting Station
Clear Clear  
Wind Chill:   Ceiling: Unl
Heat Index: 14°   Visibility: 10mi
Dew Point: 10°   Wind: 7mph
Humidity: 86%   Direction: 10°N
Pressure: 30.49"   Gusts: NA
Location:  41.14°N, 94.98°W
Report Text: KRDK 271035Z AUTO 01006KT 10SM CLR M10/M12 A3049 RMK AO2
Loading
Personal Weather Stations






























Interactive Weather Map New forecast layout! Learn more

10-Day Weather Forecast

Advertisements
Track Severe Weather on mobile